createdAt,value
2023-02-11T00:00:57.877Z,99520.34
2023-02-11T00:03:25.269Z,99514.75
2023-02-11T00:06:03.390Z,99524.28
2023-02-11T00:08:30.205Z,99514.66
2023-02-11T00:10:58.336Z,99522.69
2023-02-11T00:13:25.551Z,99517.97
2023-02-11T00:15:52.405Z,99517.97
2023-02-11T00:18:19.260Z,99515.63
2023-02-11T00:20:46.499Z,99520.44
2023-02-11T00:23:13.338Z,99520.00
2023-02-11T00:25:44.394Z,99506.72
2023-02-11T00:28:11.890Z,99508.34
2023-02-11T00:30:38.687Z,99510.38
2023-02-11T00:33:05.375Z,99508.31
2023-02-11T00:35:32.053Z,99514.41
2023-02-11T00:37:58.688Z,99525.22
2023-02-11T00:40:25.319Z,99514.50
2023-02-11T00:42:51.961Z,99510.63
2023-02-11T00:45:20.883Z,99508.50
2023-02-11T00:47:47.823Z,99508.19
2023-02-11T00:50:14.576Z,99503.88
2023-02-11T00:52:41.253Z,99503.88
2023-02-11T00:55:08.241Z,99505.72
2023-02-11T00:57:34.955Z,99512.91
2023-02-11T01:00:01.823Z,99507.66
2023-02-11T01:02:28.462Z,99505.28
2023-02-11T01:04:55.058Z,99505.19
2023-02-11T01:07:21.721Z,99501.00
2023-02-11T01:09:48.344Z,99512.03
2023-02-11T01:12:15.065Z,99512.56
2023-02-11T01:14:41.669Z,99518.38
2023-02-11T01:17:08.311Z,99514.16
2023-02-11T01:19:37.166Z,99509.69
2023-02-11T01:22:04.321Z,99500.88
2023-02-11T01:24:30.991Z,99502.41
2023-02-11T01:26:57.712Z,99501.50
2023-02-11T01:29:24.551Z,99497.97
2023-02-11T01:31:51.221Z,99500.75
2023-02-11T01:34:17.855Z,99497.75
2023-02-11T01:36:44.537Z,99493.38
2023-02-11T01:39:11.270Z,99496.16
2023-02-11T01:41:38.147Z,99494.66
2023-02-11T01:44:26.066Z,99484.59
2023-02-11T01:46:52.846Z,99488.84
2023-02-11T01:49:41.495Z,99487.56
2023-02-11T01:52:17.598Z,99489.13
2023-02-11T01:55:06.466Z,99483.13
2023-02-11T01:57:37.069Z,99488.97
2023-02-11T02:00:36.194Z,99491.56
2023-02-11T02:03:14.763Z,99487.38
2023-02-11T02:06:10.944Z,99486.00
2023-02-11T02:08:55.530Z,99484.84
2023-02-11T02:11:22.668Z,99487.28
2023-02-11T02:13:49.528Z,99479.91
2023-02-11T02:16:20.020Z,99477.25
2023-02-11T02:19:26.029Z,99477.72
2023-02-11T02:22:35.122Z,99474.56
2023-02-11T02:25:41.547Z,99466.97
2023-02-11T02:28:38.093Z,99454.53
2023-02-11T02:31:27.513Z,99463.75
2023-02-11T02:34:06.626Z,99465.16
2023-02-11T02:36:59.818Z,99465.03
2023-02-11T02:39:31.649Z,99468.56
2023-02-11T02:41:58.503Z,99464.63
2023-02-11T02:44:25.978Z,99471.34
2023-02-11T02:46:52.792Z,99465.59
2023-02-11T02:49:19.426Z,99450.78
2023-02-11T02:52:20.909Z,99448.06
2023-02-11T02:55:43.167Z,99448.63
2023-02-11T02:58:55.370Z,99435.88
2023-02-11T03:01:57.858Z,99439.88
2023-02-11T03:04:38.286Z,99441.59
2023-02-11T03:07:48.493Z,99436.47
2023-02-11T03:10:43.940Z,99441.81
2023-02-11T03:13:12.384Z,99443.16
2023-02-11T03:15:43.741Z,99438.84
2023-02-11T03:18:14.855Z,99442.38
2023-02-11T03:20:44.624Z,99448.16
2023-02-11T03:23:27.668Z,99436.91
2023-02-11T03:26:05.170Z,99427.69
2023-02-11T03:28:56.713Z,99424.34
2023-02-11T03:31:47.769Z,99421.88
2023-02-11T03:34:51.356Z,99422.44
2023-02-11T03:37:43.685Z,99427.88
2023-02-11T03:40:17.419Z,99415.63
2023-02-11T03:42:48.225Z,99420.19
2023-02-11T03:45:18.641Z,99418.47
2023-02-11T03:47:51.748Z,99408.31
2023-02-11T03:50:20.761Z,99401.69
2023-02-11T03:52:49.463Z,99408.97
2023-02-11T03:55:20.039Z,99416.44
2023-02-11T03:57:47.630Z,99414.94
2023-02-11T04:00:14.753Z,99406.38
2023-02-11T04:02:42.872Z,99392.25
2023-02-11T04:05:10.969Z,99399.47
2023-02-11T04:07:37.588Z,99387.53
2023-02-11T04:10:05.232Z,99377.47
2023-02-11T04:12:31.812Z,99379.81
2023-02-11T04:14:58.452Z,99382.41
2023-02-11T04:17:25.213Z,99386.91
2023-02-11T04:19:51.847Z,99379.97
2023-02-11T04:22:18.478Z,99383.56
2023-02-11T04:24:45.097Z,99387.84
2023-02-11T04:27:11.751Z,99390.59
2023-02-11T04:29:38.372Z,99389.03
2023-02-11T04:32:05.191Z,99389.44
2023-02-11T04:34:31.828Z,99396.53
2023-02-11T04:36:58.541Z,99386.66
2023-02-11T04:39:25.217Z,99387.09
2023-02-11T04:41:51.829Z,99392.69
2023-02-11T04:44:18.462Z,99384.56
2023-02-11T04:46:45.064Z,99393.16
2023-02-11T04:49:16.145Z,99387.81
2023-02-11T04:51:43.145Z,99393.63
2023-02-11T04:54:09.778Z,99389.31
2023-02-11T04:56:36.692Z,99389.53
2023-02-11T04:59:05.034Z,99388.56
2023-02-11T05:01:31.942Z,99390.41
2023-02-11T05:03:58.841Z,99403.19
2023-02-11T05:06:26.041Z,99414.75
2023-02-11T05:08:52.729Z,99408.84
2023-02-11T05:11:23.092Z,99416.44
2023-02-11T05:13:49.864Z,99422.44
2023-02-11T05:16:17.792Z,99418.25
2023-02-11T05:18:45.253Z,99422.25
2023-02-11T05:21:14.820Z,99425.66
2023-02-11T05:23:41.949Z,99431.31
2023-02-11T05:26:09.280Z,99430.16
2023-02-11T05:28:36.231Z,99421.78
2023-02-11T05:31:03.069Z,99421.34
2023-02-11T05:33:29.759Z,99417.69
2023-02-11T05:36:00.727Z,99411.25
2023-02-11T05:38:27.989Z,99418.44
2023-02-11T05:40:55.215Z,99419.75
2023-02-11T05:43:22.149Z,99407.75
2023-02-11T05:45:49.024Z,99414.53
2023-02-11T05:48:16.302Z,99414.09
2023-02-11T05:50:43.018Z,99403.19
2023-02-11T05:53:09.650Z,99407.66
2023-02-11T05:55:36.612Z,99397.34
2023-02-11T05:58:03.292Z,99394.25
2023-02-11T06:00:30.241Z,99385.69
2023-02-11T06:02:56.917Z,99390.13
2023-02-11T06:05:23.865Z,99391.06
2023-02-11T06:07:50.647Z,99402.97
2023-02-11T06:10:17.465Z,99401.28
2023-02-11T06:12:44.876Z,99408.88
2023-02-11T06:15:11.860Z,99408.03
2023-02-11T06:17:38.496Z,99406.84
2023-02-11T06:20:08.328Z,99406.00
2023-02-11T06:22:35.170Z,99409.69
2023-02-11T06:25:02.469Z,99404.91
2023-02-11T06:27:29.550Z,99397.66
2023-02-11T06:29:56.340Z,99393.81
2023-02-11T06:32:42.867Z,99386.97
2023-02-11T06:35:11.792Z,99386.53
2023-02-11T06:37:39.114Z,99389.13
2023-02-11T06:40:06.325Z,99390.09
2023-02-11T06:42:33.050Z,99386.44
2023-02-11T06:44:59.687Z,99380.34
2023-02-11T06:47:26.257Z,99380.75
2023-02-11T06:49:52.834Z,99379.59
2023-02-11T06:52:19.443Z,99381.38
2023-02-11T06:54:46.136Z,99389.41
2023-02-11T06:57:12.825Z,99386.44
2023-02-11T06:59:39.426Z,99378.41
2023-02-11T07:02:06.040Z,99386.59
2023-02-11T07:04:33.193Z,99392.81
2023-02-11T07:06:59.787Z,99399.44
2023-02-11T07:09:26.378Z,99398.31
2023-02-11T07:11:52.998Z,99397.91
2023-02-11T07:14:19.666Z,99406.25
2023-02-11T07:16:46.272Z,99402.72
2023-02-11T07:19:12.852Z,99405.28
2023-02-11T07:21:39.662Z,99396.91
2023-02-11T07:24:10.786Z,99395.44
2023-02-11T07:26:37.834Z,99395.75
2023-02-11T07:29:04.709Z,99393.94
2023-02-11T07:31:31.993Z,99402.84
2023-02-11T07:34:01.455Z,99403.03
2023-02-11T07:36:29.897Z,99400.16
2023-02-11T07:38:56.732Z,99389.50
2023-02-11T07:41:24.600Z,99399.16
2023-02-11T07:43:51.643Z,99384.69
2023-02-11T07:46:23.978Z,99386.41
2023-02-11T07:48:50.806Z,99367.81
2023-02-11T07:51:18.965Z,99375.06
2023-02-11T07:53:46.639Z,99388.81
2023-02-11T07:56:14.904Z,99389.88
2023-02-11T07:58:43.112Z,99395.44
2023-02-11T08:01:12.435Z,99392.41
2023-02-11T08:03:40.006Z,99405.59
2023-02-11T08:06:18.209Z,99400.84
2023-02-11T08:08:47.804Z,99391.06
2023-02-11T08:11:20.430Z,99391.88
2023-02-11T08:13:47.674Z,99400.81
2023-02-11T08:16:39.336Z,99396.50
2023-02-11T08:19:08.807Z,99387.28
2023-02-11T08:21:35.380Z,99377.03
2023-02-11T08:24:03.515Z,99374.66
2023-02-11T08:26:32.793Z,99380.28
2023-02-11T08:28:59.630Z,99373.09
2023-02-11T08:31:38.526Z,99375.84
2023-02-11T08:34:05.793Z,99365.16
2023-02-11T08:36:36.833Z,99366.28
2023-02-11T08:39:19.369Z,99372.19
2023-02-11T08:41:52.016Z,99371.22
2023-02-11T08:44:20.372Z,99366.81
2023-02-11T08:46:48.058Z,99369.69
2023-02-11T08:49:15.195Z,99373.75
2023-02-11T08:51:42.799Z,99370.63
2023-02-11T08:54:09.972Z,99368.72
2023-02-11T08:56:38.235Z,99376.78
2023-02-11T08:59:05.829Z,99372.06
2023-02-11T09:01:33.364Z,99380.16
2023-02-11T09:04:01.105Z,99375.53
2023-02-11T09:06:28.514Z,99360.13
2023-02-11T09:08:56.766Z,99353.56
2023-02-11T09:11:28.965Z,99355.94
2023-02-11T09:13:55.595Z,99351.00
2023-02-11T09:16:25.536Z,99356.97
2023-02-11T09:18:53.310Z,99369.38
2023-02-11T09:21:20.562Z,99366.09
2023-02-11T09:23:48.075Z,99366.41
2023-02-11T09:26:17.656Z,99362.38
2023-02-11T09:28:44.535Z,99372.69
2023-02-11T09:31:14.066Z,99375.09
2023-02-11T09:33:47.765Z,99393.31
2023-02-11T09:36:29.630Z,99393.28
2023-02-11T09:38:58.769Z,99397.16
2023-02-11T09:42:05.867Z,99394.91
2023-02-11T09:44:35.498Z,99393.41
2023-02-11T09:47:06.203Z,99390.69
2023-02-11T09:49:55.644Z,99389.28
2023-02-11T09:53:08.376Z,99384.63
2023-02-11T09:55:39.630Z,99375.28
2023-02-11T09:58:33.588Z,99375.22
2023-02-11T10:01:07.522Z,99378.69
2023-02-11T10:04:16.784Z,99370.13
2023-02-11T10:06:48.412Z,99366.97
2023-02-11T10:09:46.804Z,99364.25
2023-02-11T10:13:03.986Z,99359.06
2023-02-11T10:16:19.300Z,99356.47
2023-02-11T10:19:45.286Z,99355.13
2023-02-11T10:22:19.469Z,99359.31
2023-02-11T10:24:54.694Z,99365.09
2023-02-11T10:27:29.138Z,99362.66
2023-02-11T10:30:02.847Z,99368.94
2023-02-11T10:32:48.628Z,99364.78
2023-02-11T10:35:21.297Z,99351.22
2023-02-11T10:37:48.277Z,99343.56
2023-02-11T10:40:17.845Z,99347.06
2023-02-11T10:42:50.116Z,99344.81
2023-02-11T10:45:45.980Z,99340.38
2023-02-11T10:48:42.340Z,99336.88
2023-02-11T10:51:38.055Z,99335.66
2023-02-11T10:54:04.648Z,99334.00
2023-02-11T10:56:45.917Z,99340.03
2023-02-11T10:59:24.729Z,99340.81
2023-02-11T11:01:54.419Z,99334.84
2023-02-11T11:04:35.777Z,99332.78
2023-02-11T11:07:22.839Z,99328.28
2023-02-11T11:10:25.810Z,99323.28
2023-02-11T11:12:52.521Z,99318.22
2023-02-11T11:15:25.542Z,99335.44
2023-02-11T11:18:22.328Z,99330.66
2023-02-11T11:21:01.283Z,99333.53
2023-02-11T11:23:30.440Z,99327.03
2023-02-11T11:26:18.645Z,99322.72
2023-02-11T11:28:58.998Z,99324.63
2023-02-11T11:31:33.603Z,99334.94
2023-02-11T11:34:04.178Z,99325.53
2023-02-11T11:36:40.624Z,99318.28
2023-02-11T11:39:32.589Z,99312.88
2023-02-11T11:42:01.172Z,99302.44
2023-02-11T11:44:33.626Z,99311.47
2023-02-11T11:47:12.310Z,99310.81
2023-02-11T11:50:40.596Z,99308.56
2023-02-11T11:53:43.354Z,99297.28
2023-02-11T11:56:22.545Z,99296.38
2023-02-11T11:58:50.341Z,99286.59
2023-02-11T12:02:00.743Z,99278.13
2023-02-11T12:05:06.611Z,99269.78
2023-02-11T12:08:11.996Z,99268.66
2023-02-11T12:11:08.789Z,99249.09
2023-02-11T12:13:47.212Z,99239.78
2023-02-11T12:16:45.296Z,99237.63
2023-02-11T12:19:22.229Z,99236.53
2023-02-11T12:22:31.885Z,99224.69
2023-02-11T12:25:26.496Z,99222.91
2023-02-11T12:28:42.480Z,99225.22
2023-02-11T12:31:51.698Z,99211.75
2023-02-11T12:35:02.605Z,99209.41
2023-02-11T12:38:16.167Z,99212.63
2023-02-11T12:43:44.611Z,99213.63
2023-02-11T13:00:31.311Z,99178.84
2023-02-11T13:03:11.853Z,99184.81
2023-02-11T13:05:49.646Z,99185.19
2023-02-11T13:08:38.276Z,99186.41
2023-02-11T13:11:14.360Z,99191.75
2023-02-11T13:14:25.992Z,99192.09
2023-02-11T13:16:54.360Z,99192.19
2023-02-11T13:19:42.629Z,99181.75
2023-02-11T13:22:27.452Z,99179.13
2023-02-11T13:25:02.291Z,99188.84
2023-02-11T13:27:58.503Z,99202.22
2023-02-11T13:30:34.584Z,99210.28
2023-02-11T13:33:05.157Z,99216.72
2023-02-11T13:35:40.452Z,99204.88
2023-02-11T13:38:23.465Z,99210.38
2023-02-11T13:41:06.768Z,99222.22
2023-02-11T13:43:36.344Z,99206.75
2023-02-11T13:46:06.558Z,99215.25
2023-02-11T13:48:39.136Z,99209.78
2023-02-11T13:51:07.373Z,99213.03
2023-02-11T13:54:00.705Z,99208.22
2023-02-11T13:56:36.139Z,99218.19
2023-02-11T13:59:24.793Z,99210.81
2023-02-11T14:02:48.683Z,99219.31
2023-02-11T14:05:37.117Z,99214.41
2023-02-11T14:08:28.065Z,99211.94
2023-02-11T14:11:12.966Z,99213.63
2023-02-11T14:14:19.856Z,99224.03
2023-02-11T14:16:58.476Z,99221.56
2023-02-11T14:19:36.856Z,99224.97
2023-02-11T14:22:06.269Z,99220.34
2023-02-11T14:24:48.402Z,99226.41
2023-02-11T14:27:26.149Z,99230.13
2023-02-11T14:30:16.226Z,99219.78
2023-02-11T14:33:18.237Z,99223.25
2023-02-11T14:36:29.583Z,99222.31
2023-02-11T14:39:49.647Z,99211.84
2023-02-11T14:42:20.903Z,99205.59
2023-02-11T14:44:50.923Z,99205.00
2023-02-11T14:47:21.140Z,99198.63
2023-02-11T14:49:48.870Z,99204.31
2023-02-11T14:52:25.568Z,99199.75
2023-02-11T14:54:59.129Z,99195.81
2023-02-11T14:57:27.886Z,99189.88
2023-02-11T15:00:04.339Z,99197.97
2023-02-11T15:02:37.368Z,99198.44
2023-02-11T15:05:29.085Z,99201.13
2023-02-11T15:07:59.649Z,99193.72
2023-02-11T15:10:36.769Z,99196.50
2023-02-11T15:13:05.101Z,99194.53
2023-02-11T15:15:33.066Z,99187.81
2023-02-11T15:18:02.832Z,99187.38
2023-02-11T15:20:32.454Z,99192.28
2023-02-11T15:23:03.675Z,99193.03
2023-02-11T15:25:33.061Z,99196.75
2023-02-11T15:28:00.914Z,99204.41
2023-02-11T15:30:30.748Z,99203.66
2023-02-11T15:33:03.299Z,99198.44
2023-02-11T15:35:31.643Z,99195.72
2023-02-11T15:38:00.002Z,99191.84
2023-02-11T15:40:33.115Z,99197.97
2023-02-11T15:43:05.946Z,99195.28
2023-02-11T15:45:40.301Z,99184.72
2023-02-11T15:48:49.776Z,99185.22
2023-02-11T15:51:45.515Z,99179.31
2023-02-11T15:54:24.972Z,99180.69
2023-02-11T15:56:55.440Z,99172.78
2023-02-11T15:59:30.626Z,99168.84
2023-02-11T16:02:05.651Z,99169.50
2023-02-11T16:04:32.486Z,99183.84
2023-02-11T16:06:59.183Z,99197.63
2023-02-11T16:09:36.779Z,99199.97
2023-02-11T16:12:22.555Z,99209.56
2023-02-11T16:14:49.246Z,99218.13
2023-02-11T16:17:26.292Z,99225.84
2023-02-11T16:19:53.915Z,99223.25
2023-02-11T16:22:30.243Z,99232.47
2023-02-11T16:24:59.862Z,99229.50
2023-02-11T16:27:30.513Z,99225.47
2023-02-11T16:29:58.318Z,99213.88
2023-02-11T16:32:28.110Z,99206.59
2023-02-11T16:34:57.932Z,99215.25
2023-02-11T16:37:25.615Z,99217.88
2023-02-11T16:39:56.249Z,99210.34
2023-02-11T16:42:23.395Z,99214.81
2023-02-11T16:44:50.031Z,99215.72
2023-02-11T16:47:24.440Z,99213.59
2023-02-11T16:49:51.287Z,99218.63
2023-02-11T16:52:18.678Z,99218.34
2023-02-11T16:54:45.390Z,99218.50
2023-02-11T16:57:17.418Z,99218.63
2023-02-11T16:59:44.591Z,99224.22
2023-02-11T17:02:32.981Z,99220.47
2023-02-11T17:05:01.942Z,99230.81
2023-02-11T17:07:28.652Z,99218.13
2023-02-11T17:09:55.363Z,99229.03
2023-02-11T17:12:25.324Z,99217.88
2023-02-11T17:14:52.926Z,99220.09
2023-02-11T17:17:19.580Z,99221.75
2023-02-11T17:19:47.816Z,99230.03
2023-02-11T17:22:14.810Z,99231.25
2023-02-11T17:24:41.415Z,99232.72
2023-02-11T17:27:08.949Z,99227.28
2023-02-11T17:29:35.562Z,99242.16
2023-02-11T17:32:02.299Z,99233.97
2023-02-11T17:34:29.334Z,99228.13
2023-02-11T17:36:57.958Z,99228.38
2023-02-11T17:39:24.692Z,99228.19
2023-02-11T17:41:51.473Z,99231.66
2023-02-11T17:44:18.192Z,99227.66
2023-02-11T17:46:44.877Z,99231.81
2023-02-11T17:49:12.310Z,99246.66
2023-02-11T17:51:39.658Z,99247.28
2023-02-11T17:54:18.287Z,99252.31
2023-02-11T17:56:45.968Z,99263.78
2023-02-11T17:59:13.325Z,99262.38
2023-02-11T18:01:41.566Z,99258.38
2023-02-11T18:04:12.724Z,99270.59
2023-02-11T18:06:39.419Z,99264.69
2023-02-11T18:09:07.302Z,99271.97
2023-02-11T18:11:36.153Z,99261.44
2023-02-11T18:14:04.593Z,99252.38
2023-02-11T18:16:31.433Z,99267.03
2023-02-11T18:18:58.716Z,99259.03
2023-02-11T18:21:25.659Z,99270.47
2023-02-11T18:23:52.468Z,99266.00
2023-02-11T18:26:20.707Z,99267.97
2023-02-11T18:28:47.930Z,99274.94
2023-02-11T18:31:14.950Z,99272.81
2023-02-11T18:33:42.725Z,99272.81
2023-02-11T18:36:13.361Z,99268.72
2023-02-11T18:38:40.892Z,99258.94
2023-02-11T18:41:07.795Z,99271.78
2023-02-11T18:43:34.650Z,99269.84
2023-02-11T18:46:06.247Z,99274.97
2023-02-11T18:48:32.920Z,99277.94
2023-02-11T18:50:59.543Z,99268.50
2023-02-11T18:53:26.276Z,99276.00
2023-02-11T18:55:54.021Z,99278.69
2023-02-11T18:58:23.776Z,99279.31
2023-02-11T19:00:50.901Z,99285.09
2023-02-11T19:03:17.597Z,99272.16
2023-02-11T19:05:46.253Z,99274.13
2023-02-11T19:08:17.190Z,99280.06
2023-02-11T19:10:46.005Z,99282.69
2023-02-11T19:13:13.763Z,99291.53
2023-02-11T19:15:44.858Z,99285.56
2023-02-11T19:18:12.639Z,99290.50
2023-02-11T19:20:40.545Z,99294.41
2023-02-11T19:23:07.409Z,99286.28
2023-02-11T19:25:34.792Z,99286.38
2023-02-11T19:28:03.354Z,99280.38
2023-02-11T19:30:30.599Z,99291.06
2023-02-11T19:33:00.102Z,99294.31
2023-02-11T19:35:26.731Z,99290.81
2023-02-11T19:37:53.349Z,99297.44
2023-02-11T19:40:21.304Z,99298.91
2023-02-11T19:42:48.303Z,99304.38
2023-02-11T19:45:15.138Z,99308.25
2023-02-11T19:47:41.826Z,99313.38
2023-02-11T19:50:08.960Z,99315.59
2023-02-11T19:52:38.481Z,99324.00
2023-02-11T19:55:08.328Z,99309.25
2023-02-11T19:57:36.508Z,99317.91
2023-02-11T20:00:04.786Z,99309.41
2023-02-11T20:02:31.514Z,99310.53
2023-02-11T20:04:58.150Z,99308.47
2023-02-11T20:07:24.786Z,99307.31
2023-02-11T20:09:53.600Z,99312.06
2023-02-11T20:12:20.272Z,99306.94
2023-02-11T20:14:46.949Z,99299.25
2023-02-11T20:17:13.516Z,99297.31
2023-02-11T20:19:40.136Z,99294.91
2023-02-11T20:22:06.835Z,99301.13
2023-02-11T20:24:33.436Z,99304.19
2023-02-11T20:27:02.861Z,99305.84
2023-02-11T20:29:31.172Z,99308.16
2023-02-11T20:31:57.963Z,99306.41
2023-02-11T20:34:25.382Z,99304.72
2023-02-11T20:36:52.436Z,99306.19
2023-02-11T20:39:21.834Z,99290.97
2023-02-11T20:41:49.198Z,99291.31
2023-02-11T20:44:16.127Z,99297.47
2023-02-11T20:46:48.605Z,99303.44
2023-02-11T20:49:16.483Z,99306.41
2023-02-11T20:51:43.401Z,99295.56
2023-02-11T20:54:15.021Z,99286.63
2023-02-11T20:56:41.915Z,99280.69
2023-02-11T20:59:09.068Z,99277.38
2023-02-11T21:01:40.290Z,99279.91
2023-02-11T21:04:12.950Z,99271.97
2023-02-11T21:06:43.049Z,99266.56
2023-02-11T21:09:13.371Z,99269.53
2023-02-11T21:11:40.713Z,99275.69
2023-02-11T21:14:07.747Z,99276.09
2023-02-11T21:16:34.457Z,99286.91
2023-02-11T21:19:02.859Z,99293.25
2023-02-11T21:21:29.941Z,99285.44
2023-02-11T21:23:56.635Z,99293.94
2023-02-11T21:26:23.292Z,99297.19
2023-02-11T21:28:50.080Z,99300.78
2023-02-11T21:31:23.691Z,99307.75
2023-02-11T21:33:50.973Z,99309.97
2023-02-11T21:36:17.840Z,99302.34
2023-02-11T21:38:44.769Z,99307.00
2023-02-11T21:41:12.364Z,99317.00
2023-02-11T21:43:39.088Z,99315.06
2023-02-11T21:46:11.501Z,99324.09
2023-02-11T21:48:38.637Z,99315.19
2023-02-11T21:51:12.773Z,99318.91
2023-02-11T21:53:39.512Z,99309.19
2023-02-11T21:56:09.097Z,99323.31
2023-02-11T21:58:36.225Z,99330.00
2023-02-11T22:01:16.796Z,99313.97
2023-02-11T22:03:43.877Z,99318.72
2023-02-11T22:06:13.146Z,99322.38
2023-02-11T22:08:40.195Z,99328.31
2023-02-11T22:11:09.552Z,99333.94
2023-02-11T22:13:37.015Z,99343.72
2023-02-11T22:16:06.373Z,99346.72
2023-02-11T22:18:33.152Z,99348.88
2023-02-11T22:21:02.620Z,99352.97
2023-02-11T22:23:29.973Z,99345.69
2023-02-11T22:25:57.719Z,99351.41
2023-02-11T22:28:28.082Z,99345.97
2023-02-11T22:30:58.398Z,99353.69
2023-02-11T22:33:27.363Z,99345.84
2023-02-11T22:36:06.510Z,99348.00
2023-02-11T22:38:34.357Z,99344.56
2023-02-11T22:41:06.617Z,99349.03
2023-02-11T22:43:33.438Z,99359.13
2023-02-11T22:46:01.800Z,99354.34
2023-02-11T22:48:28.623Z,99355.38
2023-02-11T22:50:55.255Z,99352.88
2023-02-11T22:53:24.249Z,99354.84
2023-02-11T22:55:50.878Z,99342.53
2023-02-11T22:58:18.789Z,99343.28
2023-02-11T23:00:45.932Z,99348.59
2023-02-11T23:03:12.846Z,99348.16
2023-02-11T23:05:42.802Z,99354.00
2023-02-11T23:08:11.446Z,99354.81
2023-02-11T23:10:39.670Z,99361.34
2023-02-11T23:13:07.393Z,99357.25
2023-02-11T23:15:34.068Z,99352.09
2023-02-11T23:18:00.676Z,99354.00
2023-02-11T23:20:27.579Z,99355.66
2023-02-11T23:22:54.344Z,99362.50
2023-02-11T23:25:21.135Z,99359.78
2023-02-11T23:27:47.824Z,99375.63
2023-02-11T23:30:14.820Z,99380.38
2023-02-11T23:32:41.467Z,99381.00
2023-02-11T23:35:08.472Z,99375.16
2023-02-11T23:37:35.187Z,99376.19
2023-02-11T23:40:01.943Z,99371.53
2023-02-11T23:42:29.208Z,99370.81
2023-02-11T23:44:55.898Z,99363.25
2023-02-11T23:47:22.523Z,99367.97
2023-02-11T23:49:49.176Z,99375.44
2023-02-11T23:52:15.805Z,99368.91
2023-02-11T23:54:43.366Z,99368.72
2023-02-11T23:57:10.112Z,99371.63
2023-02-11T23:59:36.810Z,99365.03
